sensor_id;sensor_type;location;lat;lon;timestamp;P1;durP1;ratioP1;P2;durP2;ratioP2
21754;SDS011;11039;50.028;19.938;2023-04-16T00:00:27;3.00;;;2.20;;
21754;SDS011;11039;50.028;19.938;2023-04-16T00:02:53;2.92;;;2.10;;
21754;SDS011;11039;50.028;19.938;2023-04-16T00:05:19;2.97;;;2.00;;
21754;SDS011;11039;50.028;19.938;2023-04-16T00:07:45;3.10;;;2.38;;
21754;SDS011;11039;50.028;19.938;2023-04-16T00:10:11;2.72;;;2.20;;
21754;SDS011;11039;50.028;19.938;2023-04-16T00:12:37;3.25;;;2.33;;
21754;SDS011;11039;50.028;19.938;2023-04-16T00:15:03;3.15;;;2.45;;
21754;SDS011;11039;50.028;19.938;2023-04-16T00:17:30;2.95;;;2.30;;
21754;SDS011;11039;50.028;19.938;2023-04-16T00:19:56;3.08;;;2.30;;
21754;SDS011;11039;50.028;19.938;2023-04-16T00:22:22;2.88;;;2.45;;
21754;SDS011;11039;50.028;19.938;2023-04-16T00:24:48;2.72;;;2.35;;
21754;SDS011;11039;50.028;19.938;2023-04-16T00:27:14;2.33;;;2.00;;
21754;SDS011;11039;50.028;19.938;2023-04-16T00:29:40;2.60;;;2.22;;
21754;SDS011;11039;50.028;19.938;2023-04-16T00:32:06;2.42;;;1.98;;
21754;SDS011;11039;50.028;19.938;2023-04-16T00:34:32;2.53;;;2.20;;
21754;SDS011;11039;50.028;19.938;2023-04-16T00:36:58;2.60;;;2.10;;
21754;SDS011;11039;50.028;19.938;2023-04-16T00:39:24;2.50;;;2.20;;
21754;SDS011;11039;50.028;19.938;2023-04-16T00:41:50;2.70;;;2.00;;
21754;SDS011;11039;50.028;19.938;2023-04-16T00:44:16;2.42;;;2.00;;
21754;SDS011;11039;50.028;19.938;2023-04-16T00:46:42;3.40;;;1.80;;
21754;SDS011;11039;50.028;19.938;2023-04-16T00:49:08;2.33;;;2.00;;
21754;SDS011;11039;50.028;19.938;2023-04-16T00:51:35;2.75;;;2.35;;
21754;SDS011;11039;50.028;19.938;2023-04-16T00:54:01;2.38;;;1.90;;
21754;SDS011;11039;50.028;19.938;2023-04-16T00:56:28;2.33;;;2.13;;
21754;SDS011;11039;50.028;19.938;2023-04-16T00:58:54;2.65;;;2.10;;
21754;SDS011;11039;50.028;19.938;2023-04-16T01:01:20;3.10;;;2.30;;
21754;SDS011;11039;50.028;19.938;2023-04-16T01:03:47;2.75;;;2.03;;
21754;SDS011;11039;50.028;19.938;2023-04-16T01:06:14;3.00;;;2.10;;
21754;SDS011;11039;50.028;19.938;2023-04-16T01:08:41;2.42;;;2.10;;
21754;SDS011;11039;50.028;19.938;2023-04-16T01:11:08;2.72;;;2.03;;
21754;SDS011;11039;50.028;19.938;2023-04-16T01:13:35;2.70;;;2.10;;
21754;SDS011;11039;50.028;19.938;2023-04-16T01:16:07;2.30;;;2.10;;
21754;SDS011;11039;50.028;19.938;2023-04-16T01:18:34;2.38;;;2.10;;
21754;SDS011;11039;50.028;19.938;2023-04-16T01:21:00;2.33;;;2.03;;
21754;SDS011;11039;50.028;19.938;2023-04-16T01:23:26;2.20;;;1.83;;
21754;SDS011;11039;50.028;19.938;2023-04-16T01:25:52;3.15;;;2.38;;
21754;SDS011;11039;50.028;19.938;2023-04-16T01:28:18;2.58;;;2.13;;
21754;SDS011;11039;50.028;19.938;2023-04-16T01:30:45;2.63;;;1.85;;
21754;SDS011;11039;50.028;19.938;2023-04-16T01:33:12;2.55;;;1.92;;
21754;SDS011;11039;50.028;19.938;2023-04-16T01:35:39;2.92;;;1.90;;
21754;SDS011;11039;50.028;19.938;2023-04-16T01:38:05;2.70;;;2.03;;
21754;SDS011;11039;50.028;19.938;2023-04-16T01:40:32;2.53;;;1.88;;
21754;SDS011;11039;50.028;19.938;2023-04-16T01:42:59;2.38;;;1.90;;
21754;SDS011;11039;50.028;19.938;2023-04-16T01:45:25;2.63;;;1.92;;
21754;SDS011;11039;50.028;19.938;2023-04-16T01:47:51;2.33;;;1.80;;
21754;SDS011;11039;50.028;19.938;2023-04-16T01:50:18;2.30;;;1.60;;
21754;SDS011;11039;50.028;19.938;2023-04-16T01:52:44;2.88;;;1.95;;
21754;SDS011;11039;50.028;19.938;2023-04-16T01:55:10;2.47;;;1.75;;
21754;SDS011;11039;50.028;19.938;2023-04-16T01:57:36;3.08;;;1.90;;
21754;SDS011;11039;50.028;19.938;2023-04-16T02:00:02;2.53;;;1.80;;
21754;SDS011;11039;50.028;19.938;2023-04-16T02:02:29;3.08;;;2.28;;
21754;SDS011;11039;50.028;19.938;2023-04-16T02:04:55;2.90;;;2.30;;
21754;SDS011;11039;50.028;19.938;2023-04-16T02:07:21;2.40;;;2.00;;
21754;SDS011;11039;50.028;19.938;2023-04-16T02:09:47;2.70;;;2.00;;
21754;SDS011;11039;50.028;19.938;2023-04-16T02:12:16;2.88;;;2.10;;
21754;SDS011;11039;50.028;19.938;2023-04-16T02:14:42;2.70;;;2.10;;
21754;SDS011;11039;50.028;19.938;2023-04-16T02:17:09;2.17;;;1.77;;
21754;SDS011;11039;50.028;19.938;2023-04-16T02:19:35;2.90;;;1.98;;
21754;SDS011;11039;50.028;19.938;2023-04-16T02:22:01;2.30;;;2.05;;
21754;SDS011;11039;50.028;19.938;2023-04-16T02:24:27;2.47;;;1.85;;
21754;SDS011;11039;50.028;19.938;2023-04-16T02:26:53;2.42;;;2.08;;
21754;SDS011;11039;50.028;19.938;2023-04-16T02:29:19;2.65;;;2.05;;
21754;SDS011;11039;50.028;19.938;2023-04-16T02:31:46;2.20;;;1.70;;
21754;SDS011;11039;50.028;19.938;2023-04-16T02:34:12;2.47;;;2.00;;
21754;SDS011;11039;50.028;19.938;2023-04-16T02:36:38;2.55;;;1.85;;
21754;SDS011;11039;50.028;19.938;2023-04-16T02:39:05;2.03;;;1.70;;
21754;SDS011;11039;50.028;19.938;2023-04-16T02:41:31;2.17;;;1.67;;
21754;SDS011;11039;50.028;19.938;2023-04-16T02:43:57;3.22;;;1.80;;
21754;SDS011;11039;50.028;19.938;2023-04-16T02:46:23;2.25;;;1.77;;
21754;SDS011;11039;50.028;19.938;2023-04-16T02:48:49;2.67;;;1.98;;
21754;SDS011;11039;50.028;19.938;2023-04-16T02:51:15;2.42;;;1.90;;
21754;SDS011;11039;50.028;19.938;2023-04-16T02:53:41;2.50;;;2.00;;
21754;SDS011;11039;50.028;19.938;2023-04-16T02:56:10;2.55;;;1.85;;
21754;SDS011;11039;50.028;19.938;2023-04-16T02:58:37;2.08;;;1.65;;
21754;SDS011;11039;50.028;19.938;2023-04-16T03:01:03;2.28;;;1.60;;
21754;SDS011;11039;50.028;19.938;2023-04-16T03:03:29;2.10;;;1.80;;
21754;SDS011;11039;50.028;19.938;2023-04-16T03:05:55;2.50;;;1.80;;
21754;SDS011;11039;50.028;19.938;2023-04-16T03:08:21;1.77;;;1.42;;
21754;SDS011;11039;50.028;19.938;2023-04-16T03:10:47;2.42;;;1.85;;
21754;SDS011;11039;50.028;19.938;2023-04-16T03:13:13;2.10;;;1.70;;
21754;SDS011;11039;50.028;19.938;2023-04-16T03:15:40;2.13;;;1.67;;
21754;SDS011;11039;50.028;19.938;2023-04-16T03:18:06;2.28;;;1.67;;
21754;SDS011;11039;50.028;19.938;2023-04-16T03:20:32;2.63;;;1.75;;
21754;SDS011;11039;50.028;19.938;2023-04-16T03:22:58;2.10;;;1.58;;
21754;SDS011;11039;50.028;19.938;2023-04-16T03:25:24;2.15;;;1.63;;
21754;SDS011;11039;50.028;19.938;2023-04-16T03:27:50;2.13;;;1.63;;
21754;SDS011;11039;50.028;19.938;2023-04-16T03:30:16;2.45;;;1.80;;
21754;SDS011;11039;50.028;19.938;2023-04-16T03:32:42;2.17;;;1.52;;
21754;SDS011;11039;50.028;19.938;2023-04-16T03:35:08;1.92;;;1.70;;
21754;SDS011;11039;50.028;19.938;2023-04-16T03:37:34;2.15;;;1.65;;
21754;SDS011;11039;50.028;19.938;2023-04-16T03:40:01;2.95;;;2.03;;
21754;SDS011;11039;50.028;19.938;2023-04-16T03:42:28;2.10;;;1.77;;
21754;SDS011;11039;50.028;19.938;2023-04-16T03:44:54;1.92;;;1.70;;
21754;SDS011;11039;50.028;19.938;2023-04-16T03:47:20;2.07;;;1.70;;
21754;SDS011;11039;50.028;19.938;2023-04-16T03:49:46;2.05;;;1.77;;
21754;SDS011;11039;50.028;19.938;2023-04-16T03:52:12;2.20;;;1.88;;
21754;SDS011;11039;50.028;19.938;2023-04-16T03:54:38;2.45;;;1.80;;
21754;SDS011;11039;50.028;19.938;2023-04-16T03:57:04;2.28;;;1.70;;
21754;SDS011;11039;50.028;19.938;2023-04-16T03:59:30;2.30;;;1.60;;
21754;SDS011;11039;50.028;19.938;2023-04-16T04:01:56;2.42;;;1.63;;
21754;SDS011;11039;50.028;19.938;2023-04-16T04:04:22;2.55;;;1.65;;
21754;SDS011;11039;50.028;19.938;2023-04-16T04:06:48;2.83;;;1.80;;
21754;SDS011;11039;50.028;19.938;2023-04-16T04:09:14;2.20;;;1.70;;
21754;SDS011;11039;50.028;19.938;2023-04-16T04:11:40;1.95;;;1.58;;
21754;SDS011;11039;50.028;19.938;2023-04-16T04:14:06;2.30;;;1.70;;
21754;SDS011;11039;50.028;19.938;2023-04-16T04:16:33;1.83;;;1.50;;
21754;SDS011;11039;50.028;19.938;2023-04-16T04:18:59;2.38;;;1.70;;
21754;SDS011;11039;50.028;19.938;2023-04-16T04:21:26;2.55;;;2.03;;
21754;SDS011;11039;50.028;19.938;2023-04-16T04:23:52;2.65;;;1.67;;
21754;SDS011;11039;50.028;19.938;2023-04-16T04:26:18;2.67;;;1.85;;
21754;SDS011;11039;50.028;19.938;2023-04-16T04:28:45;2.33;;;1.50;;
21754;SDS011;11039;50.028;19.938;2023-04-16T04:31:11;2.00;;;1.50;;
21754;SDS011;11039;50.028;19.938;2023-04-16T04:33:37;2.30;;;1.63;;
21754;SDS011;11039;50.028;19.938;2023-04-16T04:36:03;1.60;;;1.50;;
21754;SDS011;11039;50.028;19.938;2023-04-16T04:38:29;1.83;;;1.55;;
21754;SDS011;11039;50.028;19.938;2023-04-16T04:40:56;2.60;;;1.90;;
21754;SDS011;11039;50.028;19.938;2023-04-16T04:43:22;2.28;;;1.80;;
21754;SDS011;11039;50.028;19.938;2023-04-16T04:45:48;2.38;;;1.70;;
21754;SDS011;11039;50.028;19.938;2023-04-16T04:48:15;2.08;;;1.55;;
21754;SDS011;11039;50.028;19.938;2023-04-16T04:50:41;2.22;;;1.50;;
21754;SDS011;11039;50.028;19.938;2023-04-16T04:53:07;1.88;;;1.45;;
21754;SDS011;11039;50.028;19.938;2023-04-16T04:55:38;2.50;;;2.00;;
21754;SDS011;11039;50.028;19.938;2023-04-16T04:58:05;2.00;;;1.55;;
21754;SDS011;11039;50.028;19.938;2023-04-16T05:00:31;1.80;;;1.50;;
21754;SDS011;11039;50.028;19.938;2023-04-16T05:03:00;1.90;;;1.60;;
21754;SDS011;11039;50.028;19.938;2023-04-16T05:05:27;2.03;;;1.60;;
21754;SDS011;11039;50.028;19.938;2023-04-16T05:07:53;2.60;;;1.52;;
21754;SDS011;11039;50.028;19.938;2023-04-16T05:10:19;2.17;;;1.60;;
21754;SDS011;11039;50.028;19.938;2023-04-16T05:12:48;1.73;;;1.33;;
21754;SDS011;11039;50.028;19.938;2023-04-16T05:15:15;1.90;;;1.50;;
21754;SDS011;11039;50.028;19.938;2023-04-16T05:17:41;1.60;;;1.23;;
21754;SDS011;11039;50.028;19.938;2023-04-16T05:20:08;1.80;;;1.20;;
21754;SDS011;11039;50.028;19.938;2023-04-16T05:22:34;1.88;;;1.50;;
21754;SDS011;11039;50.028;19.938;2023-04-16T05:25:00;1.42;;;1.25;;
21754;SDS011;11039;50.028;19.938;2023-04-16T05:27:26;1.50;;;1.20;;
21754;SDS011;11039;50.028;19.938;2023-04-16T05:29:52;1.45;;;1.13;;
21754;SDS011;11039;50.028;19.938;2023-04-16T05:32:18;1.77;;;1.23;;
21754;SDS011;11039;50.028;19.938;2023-04-16T05:34:44;1.30;;;1.10;;
21754;SDS011;11039;50.028;19.938;2023-04-16T05:37:10;2.08;;;1.50;;
21754;SDS011;11039;50.028;19.938;2023-04-16T05:39:36;1.73;;;1.35;;
21754;SDS011;11039;50.028;19.938;2023-04-16T05:42:02;1.45;;;1.30;;
21754;SDS011;11039;50.028;19.938;2023-04-16T05:44:28;1.20;;;1.10;;
21754;SDS011;11039;50.028;19.938;2023-04-16T05:46:54;1.50;;;1.20;;
21754;SDS011;11039;50.028;19.938;2023-04-16T05:49:20;1.42;;;1.13;;
21754;SDS011;11039;50.028;19.938;2023-04-16T05:51:47;1.75;;;1.38;;
21754;SDS011;11039;50.028;19.938;2023-04-16T05:54:13;1.10;;;1.00;;
21754;SDS011;11039;50.028;19.938;2023-04-16T05:56:39;1.42;;;1.25;;
21754;SDS011;11039;50.028;19.938;2023-04-16T05:59:05;1.40;;;1.15;;
21754;SDS011;11039;50.028;19.938;2023-04-16T06:01:31;1.10;;;0.98;;
21754;SDS011;11039;50.028;19.938;2023-04-16T06:03:57;1.23;;;1.08;;
21754;SDS011;11039;50.028;19.938;2023-04-16T06:06:23;1.40;;;1.02;;
21754;SDS011;11039;50.028;19.938;2023-04-16T06:08:51;1.95;;;1.23;;
21754;SDS011;11039;50.028;19.938;2023-04-16T06:11:17;1.70;;;1.33;;
21754;SDS011;11039;50.028;19.938;2023-04-16T06:13:43;1.35;;;1.25;;
21754;SDS011;11039;50.028;19.938;2023-04-16T06:16:09;1.85;;;1.50;;
21754;SDS011;11039;50.028;19.938;2023-04-16T06:18:35;1.50;;;1.23;;
21754;SDS011;11039;50.028;19.938;2023-04-16T06:21:02;1.45;;;0.80;;
21754;SDS011;11039;50.028;19.938;2023-04-16T06:23:28;1.35;;;1.02;;
21754;SDS011;11039;50.028;19.938;2023-04-16T06:25:54;1.85;;;1.30;;
21754;SDS011;11039;50.028;19.938;2023-04-16T06:28:20;1.48;;;1.30;;
21754;SDS011;11039;50.028;19.938;2023-04-16T06:30:46;1.20;;;1.00;;
21754;SDS011;11039;50.028;19.938;2023-04-16T06:33:13;1.30;;;1.00;;
21754;SDS011;11039;50.028;19.938;2023-04-16T06:35:39;1.30;;;1.05;;
21754;SDS011;11039;50.028;19.938;2023-04-16T06:38:05;1.60;;;1.30;;
21754;SDS011;11039;50.028;19.938;2023-04-16T06:40:31;1.10;;;0.88;;
21754;SDS011;11039;50.028;19.938;2023-04-16T06:42:57;1.15;;;1.02;;
21754;SDS011;11039;50.028;19.938;2023-04-16T06:45:23;1.20;;;1.00;;
21754;SDS011;11039;50.028;19.938;2023-04-16T06:47:49;1.13;;;1.00;;
21754;SDS011;11039;50.028;19.938;2023-04-16T06:50:16;1.33;;;0.90;;
21754;SDS011;11039;50.028;19.938;2023-04-16T06:52:42;1.35;;;1.05;;
21754;SDS011;11039;50.028;19.938;2023-04-16T06:55:08;1.38;;;0.93;;
21754;SDS011;11039;50.028;19.938;2023-04-16T06:57:35;1.20;;;1.08;;
21754;SDS011;11039;50.028;19.938;2023-04-16T07:00:01;1.10;;;1.00;;
21754;SDS011;11039;50.028;19.938;2023-04-16T07:02:29;1.10;;;0.90;;
21754;SDS011;11039;50.028;19.938;2023-04-16T07:04:55;1.27;;;1.00;;
21754;SDS011;11039;50.028;19.938;2023-04-16T07:07:21;1.13;;;0.93;;
21754;SDS011;11039;50.028;19.938;2023-04-16T07:09:47;1.20;;;1.10;;
21754;SDS011;11039;50.028;19.938;2023-04-16T07:12:13;1.00;;;0.80;;
21754;SDS011;11039;50.028;19.938;2023-04-16T07:14:39;0.98;;;0.88;;
21754;SDS011;11039;50.028;19.938;2023-04-16T07:17:05;1.08;;;0.80;;
21754;SDS011;11039;50.028;19.938;2023-04-16T07:19:31;0.98;;;0.75;;
21754;SDS011;11039;50.028;19.938;2023-04-16T07:21:58;1.15;;;0.90;;
21754;SDS011;11039;50.028;19.938;2023-04-16T07:24:24;0.90;;;0.80;;
21754;SDS011;11039;50.028;19.938;2023-04-16T07:26:50;1.02;;;0.90;;
21754;SDS011;11039;50.028;19.938;2023-04-16T07:29:16;1.25;;;0.90;;
21754;SDS011;11039;50.028;19.938;2023-04-16T07:31:42;0.80;;;0.80;;
21754;SDS011;11039;50.028;19.938;2023-04-16T07:34:09;1.20;;;0.88;;
21754;SDS011;11039;50.028;19.938;2023-04-16T07:36:35;1.10;;;0.80;;
21754;SDS011;11039;50.028;19.938;2023-04-16T07:39:01;1.00;;;0.80;;
21754;SDS011;11039;50.028;19.938;2023-04-16T07:41:27;1.20;;;1.00;;
21754;SDS011;11039;50.028;19.938;2023-04-16T07:43:53;1.73;;;0.95;;
21754;SDS011;11039;50.028;19.938;2023-04-16T07:46:19;1.33;;;1.00;;
21754;SDS011;11039;50.028;19.938;2023-04-16T07:48:45;1.08;;;0.93;;
21754;SDS011;11039;50.028;19.938;2023-04-16T07:51:12;1.25;;;0.93;;
21754;SDS011;11039;50.028;19.938;2023-04-16T07:53:38;0.95;;;0.82;;
21754;SDS011;11039;50.028;19.938;2023-04-16T07:56:04;0.93;;;0.80;;
21754;SDS011;11039;50.028;19.938;2023-04-16T07:58:30;1.20;;;0.88;;
21754;SDS011;11039;50.028;19.938;2023-04-16T08:00:57;0.90;;;0.80;;
21754;SDS011;11039;50.028;19.938;2023-04-16T08:03:23;0.88;;;0.80;;
21754;SDS011;11039;50.028;19.938;2023-04-16T08:05:49;1.25;;;0.90;;
21754;SDS011;11039;50.028;19.938;2023-04-16T08:08:15;0.70;;;0.65;;
21754;SDS011;11039;50.028;19.938;2023-04-16T08:10:41;1.48;;;1.23;;
21754;SDS011;11039;50.028;19.938;2023-04-16T08:13:07;1.00;;;0.73;;
21754;SDS011;11039;50.028;19.938;2023-04-16T08:15:33;1.05;;;0.85;;
21754;SDS011;11039;50.028;19.938;2023-04-16T08:17:59;0.70;;;0.70;;
21754;SDS011;11039;50.028;19.938;2023-04-16T08:20:25;1.13;;;0.95;;
21754;SDS011;11039;50.028;19.938;2023-04-16T08:22:52;0.68;;;0.68;;
21754;SDS011;11039;50.028;19.938;2023-04-16T08:25:18;1.00;;;0.88;;
21754;SDS011;11039;50.028;19.938;2023-04-16T08:27:45;1.00;;;0.90;;
21754;SDS011;11039;50.028;19.938;2023-04-16T08:30:11;1.13;;;0.93;;
21754;SDS011;11039;50.028;19.938;2023-04-16T08:32:37;1.08;;;0.80;;
21754;SDS011;11039;50.028;19.938;2023-04-16T08:35:03;0.77;;;0.70;;
21754;SDS011;11039;50.028;19.938;2023-04-16T08:37:29;0.60;;;0.60;;
21754;SDS011;11039;50.028;19.938;2023-04-16T08:39:56;0.73;;;0.60;;
21754;SDS011;11039;50.028;19.938;2023-04-16T08:42:29;0.70;;;0.60;;
21754;SDS011;11039;50.028;19.938;2023-04-16T08:45:05;0.70;;;0.60;;
21754;SDS011;11039;50.028;19.938;2023-04-16T08:47:33;1.45;;;1.00;;
21754;SDS011;11039;50.028;19.938;2023-04-16T08:50:00;1.00;;;0.90;;
21754;SDS011;11039;50.028;19.938;2023-04-16T08:52:27;0.80;;;0.80;;
21754;SDS011;11039;50.028;19.938;2023-04-16T08:55:01;1.60;;;0.90;;
21754;SDS011;11039;50.028;19.938;2023-04-16T08:57:29;0.80;;;0.68;;
21754;SDS011;11039;50.028;19.938;2023-04-16T09:00:00;1.00;;;0.70;;
21754;SDS011;11039;50.028;19.938;2023-04-16T09:02:26;0.90;;;0.75;;
21754;SDS011;11039;50.028;19.938;2023-04-16T09:04:52;1.02;;;0.77;;
21754;SDS011;11039;50.028;19.938;2023-04-16T09:07:20;1.67;;;1.40;;
21754;SDS011;11039;50.028;19.938;2023-04-16T09:09:47;3.30;;;2.22;;
21754;SDS011;11039;50.028;19.938;2023-04-16T09:12:14;1.98;;;1.40;;
21754;SDS011;11039;50.028;19.938;2023-04-16T09:14:40;1.70;;;1.38;;
21754;SDS011;11039;50.028;19.938;2023-04-16T09:17:07;2.25;;;1.75;;
21754;SDS011;11039;50.028;19.938;2023-04-16T09:19:33;1.98;;;1.33;;
21754;SDS011;11039;50.028;19.938;2023-04-16T09:21:59;2.03;;;1.33;;
21754;SDS011;11039;50.028;19.938;2023-04-16T09:24:26;1.75;;;1.50;;
21754;SDS011;11039;50.028;19.938;2023-04-16T09:26:53;2.05;;;1.40;;
21754;SDS011;11039;50.028;19.938;2023-04-16T09:29:35;2.08;;;1.45;;
21754;SDS011;11039;50.028;19.938;2023-04-16T09:32:02;1.58;;;1.23;;
21754;SDS011;11039;50.028;19.938;2023-04-16T09:34:28;1.73;;;1.40;;
21754;SDS011;11039;50.028;19.938;2023-04-16T09:36:57;2.65;;;1.42;;
21754;SDS011;11039;50.028;19.938;2023-04-16T09:39:39;1.30;;;0.90;;
21754;SDS011;11039;50.028;19.938;2023-04-16T09:42:05;2.10;;;1.30;;
21754;SDS011;11039;50.028;19.938;2023-04-16T09:44:34;2.50;;;1.95;;
21754;SDS011;11039;50.028;19.938;2023-04-16T09:47:04;2.38;;;1.13;;
21754;SDS011;11039;50.028;19.938;2023-04-16T09:49:32;1.90;;;1.35;;
21754;SDS011;11039;50.028;19.938;2023-04-16T09:52:00;1.40;;;1.17;;
21754;SDS011;11039;50.028;19.938;2023-04-16T09:54:26;3.58;;;1.10;;
21754;SDS011;11039;50.028;19.938;2023-04-16T09:56:55;3.58;;;1.42;;
21754;SDS011;11039;50.028;19.938;2023-04-16T09:59:22;2.03;;;1.20;;
21754;SDS011;11039;50.028;19.938;2023-04-16T10:01:48;1.98;;;1.17;;
21754;SDS011;11039;50.028;19.938;2023-04-16T10:04:17;1.35;;;0.65;;
21754;SDS011;11039;50.028;19.938;2023-04-16T10:06:43;1.83;;;0.90;;
21754;SDS011;11039;50.028;19.938;2023-04-16T10:09:12;1.42;;;0.82;;
21754;SDS011;11039;50.028;19.938;2023-04-16T10:11:38;1.85;;;1.10;;
21754;SDS011;11039;50.028;19.938;2023-04-16T10:14:04;2.20;;;0.98;;
21754;SDS011;11039;50.028;19.938;2023-04-16T10:16:30;1.75;;;1.10;;
21754;SDS011;11039;50.028;19.938;2023-04-16T10:18:56;1.63;;;0.90;;
21754;SDS011;11039;50.028;19.938;2023-04-16T10:21:23;2.72;;;1.20;;
21754;SDS011;11039;50.028;19.938;2023-04-16T10:23:57;2.45;;;0.93;;
21754;SDS011;11039;50.028;19.938;2023-04-16T10:26:23;2.70;;;1.17;;
21754;SDS011;11039;50.028;19.938;2023-04-16T10:28:50;3.42;;;1.40;;
21754;SDS011;11039;50.028;19.938;2023-04-16T10:31:16;3.40;;;1.20;;
21754;SDS011;11039;50.028;19.938;2023-04-16T10:33:42;2.13;;;1.00;;
21754;SDS011;11039;50.028;19.938;2023-04-16T10:36:15;2.70;;;0.90;;
21754;SDS011;11039;50.028;19.938;2023-04-16T10:38:46;1.67;;;1.13;;
21754;SDS011;11039;50.028;19.938;2023-04-16T10:41:12;1.20;;;0.80;;
21754;SDS011;11039;50.028;19.938;2023-04-16T10:43:42;3.05;;;1.05;;
21754;SDS011;11039;50.028;19.938;2023-04-16T10:46:19;4.50;;;1.58;;
21754;SDS011;11039;50.028;19.938;2023-04-16T10:48:45;4.03;;;1.35;;
21754;SDS011;11039;50.028;19.938;2023-04-16T10:51:21;5.40;;;1.35;;
21754;SDS011;11039;50.028;19.938;2023-04-16T10:53:48;5.93;;;1.77;;
21754;SDS011;11039;50.028;19.938;2023-04-16T10:56:21;6.43;;;1.70;;
21754;SDS011;11039;50.028;19.938;2023-04-16T10:58:47;5.75;;;1.60;;
21754;SDS011;11039;50.028;19.938;2023-04-16T11:01:13;6.60;;;1.58;;
21754;SDS011;11039;50.028;19.938;2023-04-16T11:03:46;6.57;;;1.52;;
21754;SDS011;11039;50.028;19.938;2023-04-16T11:06:16;6.35;;;1.65;;
21754;SDS011;11039;50.028;19.938;2023-04-16T11:08:49;6.28;;;1.70;;
21754;SDS011;11039;50.028;19.938;2023-04-16T11:11:16;4.78;;;1.58;;
21754;SDS011;11039;50.028;19.938;2023-04-16T11:13:43;4.70;;;1.30;;
21754;SDS011;11039;50.028;19.938;2023-04-16T11:16:13;5.07;;;1.30;;
21754;SDS011;11039;50.028;19.938;2023-04-16T11:18:39;2.42;;;1.00;;
21754;SDS011;11039;50.028;19.938;2023-04-16T11:21:09;2.92;;;1.17;;
21754;SDS011;11039;50.028;19.938;2023-04-16T11:23:48;2.60;;;1.02;;
21754;SDS011;11039;50.028;19.938;2023-04-16T11:26:27;4.82;;;1.52;;
21754;SDS011;11039;50.028;19.938;2023-04-16T11:28:55;2.30;;;0.80;;
21754;SDS011;11039;50.028;19.938;2023-04-16T11:31:22;3.38;;;0.90;;
21754;SDS011;11039;50.028;19.938;2023-04-16T11:33:48;3.05;;;0.82;;
21754;SDS011;11039;50.028;19.938;2023-04-16T11:36:15;2.85;;;0.82;;
21754;SDS011;11039;50.028;19.938;2023-04-16T11:38:41;2.42;;;0.70;;
21754;SDS011;11039;50.028;19.938;2023-04-16T11:41:07;1.85;;;0.80;;
21754;SDS011;11039;50.028;19.938;2023-04-16T11:43:34;1.20;;;0.77;;
21754;SDS011;11039;50.028;19.938;2023-04-16T11:46:04;1.80;;;0.80;;
21754;SDS011;11039;50.028;19.938;2023-04-16T11:51:12;1.15;;;0.40;;
21754;SDS011;11039;50.028;19.938;2023-04-16T11:53:45;1.08;;;0.60;;
21754;SDS011;11039;50.028;19.938;2023-04-16T11:56:11;1.52;;;0.60;;
21754;SDS011;11039;50.028;19.938;2023-04-16T11:58:37;1.00;;;0.68;;
21754;SDS011;11039;50.028;19.938;2023-04-16T12:01:03;1.45;;;0.52;;
21754;SDS011;11039;50.028;19.938;2023-04-16T12:03:36;1.63;;;0.70;;
21754;SDS011;11039;50.028;19.938;2023-04-16T12:06:06;1.55;;;0.50;;
21754;SDS011;11039;50.028;19.938;2023-04-16T12:08:33;0.93;;;0.68;;
21754;SDS011;11039;50.028;19.938;2023-04-16T12:11:00;1.55;;;0.80;;
21754;SDS011;11039;50.028;19.938;2023-04-16T12:13:26;0.75;;;0.60;;
21754;SDS011;11039;50.028;19.938;2023-04-16T12:15:52;0.98;;;0.55;;
21754;SDS011;11039;50.028;19.938;2023-04-16T12:18:20;0.93;;;0.65;;
21754;SDS011;11039;50.028;19.938;2023-04-16T12:20:47;1.23;;;0.68;;
21754;SDS011;11039;50.028;19.938;2023-04-16T12:23:21;1.77;;;0.70;;
21754;SDS011;11039;50.028;19.938;2023-04-16T12:25:47;1.42;;;0.60;;
21754;SDS011;11039;50.028;19.938;2023-04-16T12:28:26;1.30;;;0.70;;
21754;SDS011;11039;50.028;19.938;2023-04-16T12:30:53;1.17;;;0.70;;
21754;SDS011;11039;50.028;19.938;2023-04-16T12:33:20;1.60;;;0.70;;
21754;SDS011;11039;50.028;19.938;2023-04-16T12:35:46;1.90;;;0.60;;
21754;SDS011;11039;50.028;19.938;2023-04-16T12:38:12;0.65;;;0.50;;
21754;SDS011;11039;50.028;19.938;2023-04-16T12:40:39;1.42;;;0.55;;
21754;SDS011;11039;50.028;19.938;2023-04-16T12:43:05;2.80;;;0.60;;
21754;SDS011;11039;50.028;19.938;2023-04-16T12:45:33;1.25;;;0.40;;
21754;SDS011;11039;50.028;19.938;2023-04-16T12:47:59;1.08;;;0.55;;
21754;SDS011;11039;50.028;19.938;2023-04-16T12:50:25;1.70;;;0.60;;
21754;SDS011;11039;50.028;19.938;2023-04-16T12:52:53;1.40;;;0.50;;
21754;SDS011;11039;50.028;19.938;2023-04-16T12:55:19;1.33;;;0.63;;
21754;SDS011;11039;50.028;19.938;2023-04-16T12:57:46;1.45;;;0.50;;
21754;SDS011;11039;50.028;19.938;2023-04-16T13:00:13;1.27;;;0.50;;
21754;SDS011;11039;50.028;19.938;2023-04-16T13:02:40;2.45;;;0.73;;
21754;SDS011;11039;50.028;19.938;2023-04-16T13:05:06;2.65;;;0.75;;
21754;SDS011;11039;50.028;19.938;2023-04-16T13:07:32;1.95;;;0.80;;
21754;SDS011;11039;50.028;19.938;2023-04-16T13:09:59;1.55;;;0.65;;
21754;SDS011;11039;50.028;19.938;2023-04-16T13:12:25;1.33;;;0.50;;
21754;SDS011;11039;50.028;19.938;2023-04-16T13:14:52;2.13;;;0.60;;
21754;SDS011;11039;50.028;19.938;2023-04-16T13:17:18;1.25;;;0.60;;
21754;SDS011;11039;50.028;19.938;2023-04-16T13:19:44;1.50;;;0.50;;
21754;SDS011;11039;50.028;19.938;2023-04-16T13:22:10;1.63;;;0.60;;
21754;SDS011;11039;50.028;19.938;2023-04-16T13:24:36;1.13;;;0.73;;
21754;SDS011;11039;50.028;19.938;2023-04-16T13:27:03;1.15;;;0.70;;
21754;SDS011;11039;50.028;19.938;2023-04-16T13:29:29;0.82;;;0.60;;
21754;SDS011;11039;50.028;19.938;2023-04-16T13:31:55;1.20;;;0.60;;
21754;SDS011;11039;50.028;19.938;2023-04-16T13:34:21;2.28;;;1.00;;
21754;SDS011;11039;50.028;19.938;2023-04-16T13:36:47;2.17;;;0.88;;
21754;SDS011;11039;50.028;19.938;2023-04-16T13:39:13;1.47;;;1.13;;
21754;SDS011;11039;50.028;19.938;2023-04-16T13:41:39;1.50;;;1.15;;
21754;SDS011;11039;50.028;19.938;2023-04-16T13:44:06;2.15;;;1.13;;
21754;SDS011;11039;50.028;19.938;2023-04-16T13:46:32;1.65;;;1.20;;
21754;SDS011;11039;50.028;19.938;2023-04-16T13:48:58;1.52;;;1.00;;
21754;SDS011;11039;50.028;19.938;2023-04-16T13:51:24;2.10;;;1.40;;
21754;SDS011;11039;50.028;19.938;2023-04-16T13:53:52;1.52;;;1.23;;
21754;SDS011;11039;50.028;19.938;2023-04-16T13:56:19;2.92;;;1.30;;
21754;SDS011;11039;50.028;19.938;2023-04-16T13:58:45;1.25;;;0.82;;
21754;SDS011;11039;50.028;19.938;2023-04-16T14:01:11;1.45;;;1.10;;
21754;SDS011;11039;50.028;19.938;2023-04-16T14:03:37;1.02;;;0.90;;
21754;SDS011;11039;50.028;19.938;2023-04-16T14:06:04;1.25;;;0.80;;
21754;SDS011;11039;50.028;19.938;2023-04-16T14:08:31;1.40;;;0.90;;
21754;SDS011;11039;50.028;19.938;2023-04-16T14:10:57;1.25;;;0.90;;
21754;SDS011;11039;50.028;19.938;2023-04-16T14:13:23;1.55;;;1.10;;
21754;SDS011;11039;50.028;19.938;2023-04-16T14:15:52;4.63;;;1.58;;
21754;SDS011;11039;50.028;19.938;2023-04-16T14:18:18;5.03;;;1.30;;
21754;SDS011;11039;50.028;19.938;2023-04-16T14:20:44;8.05;;;2.47;;
21754;SDS011;11039;50.028;19.938;2023-04-16T14:23:10;6.57;;;2.28;;
21754;SDS011;11039;50.028;19.938;2023-04-16T14:25:37;8.20;;;2.75;;
21754;SDS011;11039;50.028;19.938;2023-04-16T14:28:03;8.23;;;2.08;;
21754;SDS011;11039;50.028;19.938;2023-04-16T14:30:29;12.57;;;3.20;;
21754;SDS011;11039;50.028;19.938;2023-04-16T14:32:55;6.80;;;2.05;;